createdAt,value
2023-05-06T00:01:28.534Z,98.1
2023-05-06T00:11:27.825Z,97.9
2023-05-06T00:21:27.686Z,98.0
2023-05-06T00:31:27.509Z,98.2
2023-05-06T00:41:27.722Z,98.1
2023-05-06T00:51:28.996Z,98.0
2023-05-06T01:01:27.661Z,98.1
2023-05-06T01:11:27.680Z,98.2
2023-05-06T01:21:28.053Z,98.5
2023-05-06T01:31:27.789Z,98.7
2023-05-06T01:41:27.860Z,98.8
2023-05-06T01:51:27.812Z,98.9
2023-05-06T02:01:27.727Z,99.1
2023-05-06T02:11:27.701Z,99.0
2023-05-06T02:21:28.824Z,98.4
2023-05-06T02:31:28.179Z,98.8
2023-05-06T02:41:27.897Z,98.9
2023-05-06T02:51:28.133Z,99.1
2023-05-06T03:01:28.080Z,99.0
2023-05-06T03:11:28.463Z,99.1
2023-05-06T03:21:28.303Z,99.3
2023-05-06T03:31:28.211Z,99.4
2023-05-06T03:41:28.387Z,99.3
2023-05-06T03:51:28.336Z,99.4
2023-05-06T04:01:28.588Z,99.4
2023-05-06T04:11:29.683Z,99.4
2023-05-06T04:21:28.176Z,99.5
2023-05-06T04:31:28.489Z,99.6
2023-05-06T04:41:28.264Z,99.6
2023-05-06T04:51:28.240Z,99.7
2023-05-06T05:01:28.264Z,99.8
2023-05-06T05:11:28.321Z,99.8
2023-05-06T05:21:28.497Z,99.9
2023-05-06T05:31:28.985Z,100.0
2023-05-06T05:41:28.256Z,100.0
2023-05-06T05:51:28.764Z,100.0
2023-05-06T06:01:28.734Z,100.0
2023-05-06T06:11:28.460Z,100.0
2023-05-06T06:21:28.634Z,100.0
2023-05-06T06:31:29.182Z,100.0
2023-05-06T06:41:28.687Z,100.0
2023-05-06T06:51:28.428Z,100.0
2023-05-06T07:01:28.778Z,99.8
2023-05-06T07:11:28.530Z,99.8
2023-05-06T07:21:28.991Z,99.4
2023-05-06T07:31:28.916Z,99.4
2023-05-06T07:41:28.745Z,98.7
2023-05-06T07:51:28.593Z,97.6
2023-05-06T08:01:29.006Z,96.6
2023-05-06T08:11:28.676Z,93.6
2023-05-06T08:21:28.594Z,91.9
2023-05-06T08:31:28.710Z,91.5
2023-05-06T08:41:28.631Z,89.3
2023-05-06T08:51:28.934Z,87.5
2023-05-06T09:01:28.893Z,84.2
2023-05-06T09:11:28.856Z,84.4
2023-05-06T09:21:30.187Z,80.8
2023-05-06T09:31:28.971Z,78.3
2023-05-06T09:41:28.630Z,76.4
2023-05-06T09:51:28.960Z,73.6
2023-05-06T10:01:36.732Z,73.2
2023-05-06T10:11:29.381Z,72.1
2023-05-06T10:21:28.836Z,71.8
2023-05-06T10:31:29.295Z,67.9
2023-05-06T10:41:28.993Z,70.3
2023-05-06T10:51:29.202Z,69.2
2023-05-06T11:01:29.489Z,65.6
2023-05-06T11:11:29.053Z,64.8
2023-05-06T11:21:29.986Z,66.5
2023-05-06T11:31:29.604Z,69.5
2023-05-06T11:41:29.776Z,66.1
2023-05-06T11:51:29.290Z,62.2
2023-05-06T12:01:29.208Z,61.1
2023-05-06T12:11:29.045Z,61.2
2023-05-06T12:21:29.160Z,61.5
2023-05-06T12:31:29.167Z,61.2
2023-05-06T12:41:29.204Z,59.1
2023-05-06T12:51:29.330Z,57.0
2023-05-06T13:01:29.237Z,59.2
2023-05-06T13:11:29.213Z,54.5
2023-05-06T13:21:29.235Z,57.4
2023-05-06T13:31:29.303Z,57.7
2023-05-06T13:41:29.185Z,55.4
2023-05-06T13:51:29.545Z,54.7
2023-05-06T14:01:29.495Z,53.2
2023-05-06T14:11:29.208Z,52.8
2023-05-06T14:21:29.150Z,55.2
2023-05-06T14:31:29.283Z,52.4
2023-05-06T14:41:29.272Z,54.3
2023-05-06T14:51:29.295Z,53.6
2023-05-06T15:01:29.540Z,55.9
2023-05-06T15:11:29.570Z,54.2
2023-05-06T15:21:29.147Z,54.6
2023-05-06T15:31:29.369Z,52.6
2023-05-06T15:41:29.144Z,57.9
2023-05-06T15:51:29.365Z,57.2
2023-05-06T16:01:53.853Z,56.5
2023-05-06T16:11:29.180Z,56.5
2023-05-06T16:21:29.286Z,62.7
2023-05-06T16:31:29.247Z,64.7
2023-05-06T16:41:29.967Z,65.8
2023-05-06T16:51:29.303Z,65.9
2023-05-06T17:01:29.305Z,65.8
2023-05-06T17:11:30.008Z,66.0
2023-05-06T17:21:29.681Z,68.9
2023-05-06T17:31:29.748Z,70.8
2023-05-06T17:41:29.591Z,71.5
2023-05-06T17:51:30.620Z,71.4
2023-05-06T18:01:29.715Z,71.6
2023-05-06T18:11:29.874Z,73.1
2023-05-06T18:21:29.592Z,72.3
2023-05-06T18:31:29.593Z,72.9
2023-05-06T18:41:29.665Z,76.8
2023-05-06T18:51:29.780Z,79.6
2023-05-06T19:01:29.696Z,85.7
2023-05-06T19:11:29.603Z,88.7
2023-05-06T19:21:29.525Z,91.0
2023-05-06T19:31:29.672Z,92.4
2023-05-06T19:41:30.291Z,93.3
2023-05-06T19:51:29.604Z,93.8
2023-05-06T20:01:30.351Z,94.5
2023-05-06T20:11:29.552Z,94.8
2023-05-06T20:21:29.574Z,94.7
2023-05-06T20:31:29.879Z,94.3
2023-05-06T20:41:29.787Z,93.8
2023-05-06T20:51:29.574Z,94.4
2023-05-06T21:01:29.679Z,94.9
2023-05-06T21:11:29.482Z,95.0
2023-05-06T21:21:29.712Z,95.2
2023-05-06T21:31:29.775Z,95.6
2023-05-06T21:41:29.638Z,95.8
2023-05-06T21:51:29.677Z,95.8
2023-05-06T22:01:29.647Z,96.1
2023-05-06T22:11:30.715Z,96.0
2023-05-06T22:21:29.620Z,96.3
2023-05-06T22:31:29.693Z,96.5
2023-05-06T22:41:29.593Z,96.6
2023-05-06T22:51:29.688Z,96.7
2023-05-06T23:01:30.045Z,96.9
2023-05-06T23:11:30.444Z,97.0
2023-05-06T23:21:30.173Z,97.0
2023-05-06T23:31:32.503Z,96.9
2023-05-06T23:41:32.065Z,96.8
2023-05-06T23:51:31.990Z,96.8
